createdAt,value
2022-09-27T00:01:13.544Z,19.19
2022-09-27T00:03:41.742Z,19.21
2022-09-27T00:06:16.249Z,19.14
2022-09-27T00:08:44.529Z,19.11
2022-09-27T00:11:27.099Z,19.17
2022-09-27T00:13:56.624Z,19.39
2022-09-27T00:16:27.448Z,19.55
2022-09-27T00:19:00.541Z,19.79
2022-09-27T00:21:30.724Z,19.47
2022-09-27T00:23:59.478Z,19.36
2022-09-27T00:26:28.097Z,19.36
2022-09-27T00:28:56.378Z,19.40
2022-09-27T00:31:29.664Z,19.41
2022-09-27T00:34:00.956Z,19.25
2022-09-27T00:36:30.365Z,19.41
2022-09-27T00:39:00.336Z,19.40
2022-09-27T00:41:35.367Z,19.36
2022-09-27T00:44:26.115Z,19.38
2022-09-27T00:47:04.911Z,19.45
2022-09-27T00:49:37.696Z,19.49
2022-09-27T00:52:14.713Z,19.40
2022-09-27T00:54:47.101Z,19.49
2022-09-27T00:57:14.917Z,19.45
2022-09-27T00:59:52.774Z,19.48
2022-09-27T01:02:20.685Z,19.37
2022-09-27T01:04:49.843Z,19.37
2022-09-27T01:07:17.625Z,19.40
2022-09-27T01:09:48.173Z,19.60
2022-09-27T01:12:56.059Z,19.35
2022-09-27T01:15:40.962Z,19.27
2022-09-27T01:18:35.744Z,19.25
2022-09-27T01:21:18.331Z,19.34
2022-09-27T01:24:07.965Z,19.30
2022-09-27T01:26:52.042Z,19.24
2022-09-27T01:29:44.054Z,19.09
2022-09-27T01:32:57.354Z,19.05
2022-09-27T01:35:57.810Z,19.08
2022-09-27T01:38:37.753Z,19.38
2022-09-27T01:41:57.616Z,19.34
2022-09-27T01:44:43.732Z,19.20
2022-09-27T01:47:25.025Z,19.11
2022-09-27T01:50:16.555Z,19.13
2022-09-27T01:53:04.051Z,19.14
2022-09-27T01:55:40.448Z,19.17
2022-09-27T01:59:22.551Z,19.16
2022-09-27T02:02:04.990Z,19.10
2022-09-27T02:04:58.535Z,19.26
2022-09-27T02:07:53.151Z,19.29
2022-09-27T02:10:29.323Z,19.24
2022-09-27T02:13:21.970Z,19.26
2022-09-27T02:31:39.527Z,19.42
2022-09-27T02:34:19.013Z,19.35
2022-09-27T02:36:47.724Z,19.21
2022-09-27T02:39:16.417Z,19.20
2022-09-27T02:41:44.170Z,19.16
2022-09-27T02:44:15.780Z,19.21
2022-09-27T02:47:12.822Z,19.32
2022-09-27T02:49:48.989Z,19.20
2022-09-27T02:53:19.604Z,19.02
2022-09-27T02:56:04.923Z,19.15
2022-09-27T02:59:14.464Z,19.15
2022-09-27T03:02:13.529Z,19.07
2022-09-27T03:05:35.449Z,19.13
2022-09-27T03:08:04.658Z,18.99
2022-09-27T03:10:32.825Z,18.90
2022-09-27T03:13:01.054Z,18.91
2022-09-27T03:15:28.743Z,18.85
2022-09-27T03:18:03.173Z,18.89
2022-09-27T03:20:31.516Z,18.80
2022-09-27T03:23:17.355Z,18.79
2022-09-27T03:25:45.020Z,18.77
2022-09-27T03:28:14.021Z,18.91
2022-09-27T03:30:44.773Z,19.02
2022-09-27T03:33:14.618Z,18.91
2022-09-27T03:35:46.532Z,18.93
2022-09-27T03:38:15.152Z,18.95
2022-09-27T03:40:42.864Z,19.00
2022-09-27T03:43:11.628Z,18.82
2022-09-27T03:45:39.249Z,18.87
2022-09-27T03:48:10.079Z,18.65
2022-09-27T03:50:37.951Z,18.40
2022-09-27T03:53:05.494Z,18.41
2022-09-27T03:55:33.124Z,18.60
2022-09-27T03:58:00.735Z,18.39
2022-09-27T04:00:28.970Z,18.42
2022-09-27T04:02:56.640Z,18.26
2022-09-27T04:05:29.425Z,18.32
2022-09-27T04:08:00.891Z,18.28
2022-09-27T04:10:30.714Z,18.46
2022-09-27T04:12:58.418Z,18.54
2022-09-27T04:15:28.876Z,18.36
2022-09-27T04:18:28.789Z,18.52
2022-09-27T04:21:02.779Z,18.44
2022-09-27T04:23:32.673Z,18.34
2022-09-27T04:26:01.319Z,18.29
2022-09-27T04:28:54.513Z,18.19
2022-09-27T04:31:23.969Z,18.26
2022-09-27T04:34:10.232Z,18.36
2022-09-27T04:36:38.210Z,18.33
2022-09-27T04:39:28.501Z,18.47
2022-09-27T04:41:57.100Z,18.33
2022-09-27T04:44:24.791Z,18.26
2022-09-27T04:46:52.682Z,18.30
2022-09-27T04:49:20.305Z,18.35
2022-09-27T04:51:48.787Z,18.27
2022-09-27T04:54:16.359Z,18.25
2022-09-27T04:57:07.043Z,18.33
2022-09-27T04:59:34.926Z,18.39
2022-09-27T05:02:02.439Z,18.39
2022-09-27T05:04:41.767Z,18.35
2022-09-27T05:07:10.454Z,18.63
2022-09-27T05:09:44.893Z,18.57
2022-09-27T05:12:14.028Z,18.55
2022-09-27T05:15:02.687Z,18.47
2022-09-27T05:17:36.238Z,18.59
2022-09-27T05:20:22.533Z,18.66
2022-09-27T05:23:13.187Z,18.67
2022-09-27T05:25:42.473Z,18.75
2022-09-27T05:28:10.498Z,18.83
2022-09-27T05:30:38.141Z,18.85
2022-09-27T05:33:13.911Z,18.80
2022-09-27T05:36:02.392Z,18.71
2022-09-27T05:38:31.514Z,18.85
2022-09-27T05:41:00.921Z,18.89
2022-09-27T05:43:28.896Z,18.87
2022-09-27T05:46:01.541Z,18.98
2022-09-27T05:48:30.496Z,18.92
2022-09-27T05:51:09.193Z,18.90
2022-09-27T05:53:39.899Z,18.98
2022-09-27T05:56:13.524Z,19.03
2022-09-27T05:59:13.858Z,18.95
2022-09-27T06:02:02.086Z,18.89
2022-09-27T06:04:49.582Z,18.93
2022-09-27T06:07:46.346Z,18.92
2022-09-27T06:10:20.233Z,19.02
2022-09-27T06:12:48.311Z,19.18
2022-09-27T06:15:40.806Z,19.33
2022-09-27T06:18:16.289Z,19.35
2022-09-27T06:20:45.658Z,19.19
2022-09-27T06:23:20.534Z,19.17
2022-09-27T06:25:53.441Z,19.29
2022-09-27T06:28:41.335Z,19.47
2022-09-27T06:31:11.745Z,19.44
2022-09-27T06:33:47.766Z,19.65
2022-09-27T06:38:46.792Z,19.77
2022-09-27T06:41:20.945Z,19.87
2022-09-27T06:44:05.962Z,19.95
2022-09-27T06:47:12.216Z,20.01
2022-09-27T06:50:07.244Z,19.95
2022-09-27T06:52:37.110Z,19.98
2022-09-27T06:55:06.489Z,19.95
2022-09-27T06:57:53.417Z,20.08
2022-09-27T07:00:24.020Z,20.15
2022-09-27T07:03:08.351Z,20.17
2022-09-27T07:05:59.620Z,20.30
2022-09-27T07:08:41.795Z,20.42
2022-09-27T07:11:09.529Z,20.61
2022-09-27T07:13:40.515Z,20.86
2022-09-27T07:16:08.454Z,20.93
2022-09-27T07:18:35.973Z,21.10
2022-09-27T07:21:03.625Z,21.23
2022-09-27T07:23:32.183Z,21.43
2022-09-27T07:26:04.554Z,21.51
2022-09-27T07:28:32.568Z,21.80
2022-09-27T07:31:03.413Z,21.94
2022-09-27T07:33:32.988Z,21.90
2022-09-27T07:36:08.558Z,22.02
2022-09-27T07:38:38.203Z,22.21
2022-09-27T07:41:14.837Z,22.41
2022-09-27T07:43:45.122Z,22.44
2022-09-27T07:46:14.702Z,22.51
2022-09-27T07:49:07.079Z,22.60
2022-09-27T07:51:59.541Z,22.76
2022-09-27T07:54:40.151Z,22.78
2022-09-27T07:57:16.069Z,22.97
2022-09-27T07:59:50.031Z,22.81
2022-09-27T08:02:21.744Z,22.70
2022-09-27T08:04:51.506Z,22.76
2022-09-27T08:07:19.670Z,23.16
2022-09-27T08:09:51.090Z,23.34
2022-09-27T08:12:21.525Z,23.34
2022-09-27T08:14:50.280Z,23.54
2022-09-27T08:17:19.471Z,23.58
2022-09-27T08:20:06.905Z,23.87
2022-09-27T08:22:51.076Z,24.07
2022-09-27T08:25:30.547Z,24.12
2022-09-27T08:28:07.006Z,24.05
2022-09-27T08:30:38.752Z,24.54
2022-09-27T08:33:08.686Z,24.79
2022-09-27T08:35:36.797Z,25.39
2022-09-27T08:38:06.082Z,25.51
2022-09-27T08:40:56.251Z,25.73
2022-09-27T08:43:39.649Z,25.65
2022-09-27T08:46:26.354Z,25.53
2022-09-27T08:49:17.783Z,25.33
2022-09-27T08:51:50.153Z,25.24
2022-09-27T08:54:25.032Z,25.38
2022-09-27T08:57:03.598Z,25.29
2022-09-27T08:59:40.208Z,25.45
2022-09-27T09:02:19.155Z,25.67
2022-09-27T09:04:55.312Z,26.07
2022-09-27T09:07:40.864Z,26.12
2022-09-27T09:10:49.156Z,26.40
2022-09-27T09:13:40.884Z,25.99
2022-09-27T09:16:31.459Z,26.42
2022-09-27T09:19:16.570Z,26.28
2022-09-27T09:22:45.600Z,26.71
2022-09-27T09:25:38.210Z,26.50
2022-09-27T09:28:36.662Z,26.66
2022-09-27T09:31:42.020Z,26.89
2022-09-27T09:34:40.255Z,26.74
2022-09-27T09:37:36.366Z,26.96
2022-09-27T09:40:23.012Z,26.69
2022-09-27T09:43:14.173Z,26.52
2022-09-27T09:45:51.910Z,27.04
2022-09-27T09:48:31.204Z,27.41
2022-09-27T09:51:06.005Z,27.44
2022-09-27T09:54:07.392Z,27.41
2022-09-27T09:56:48.026Z,27.88
2022-09-27T09:59:28.350Z,27.92
2022-09-27T10:02:08.706Z,27.95
2022-09-27T10:04:36.446Z,28.02
2022-09-27T10:07:04.032Z,28.32
2022-09-27T10:09:36.575Z,28.53
2022-09-27T10:12:33.456Z,28.70
2022-09-27T10:15:05.237Z,28.98
2022-09-27T10:17:47.476Z,28.68
2022-09-27T10:20:53.801Z,28.69
2022-09-27T10:23:25.202Z,28.64
2022-09-27T10:26:12.115Z,29.20
2022-09-27T10:28:51.005Z,29.46
2022-09-27T10:31:45.163Z,29.77
2022-09-27T10:34:34.776Z,30.06
2022-09-27T10:37:13.640Z,30.02
2022-09-27T10:39:53.714Z,30.22
2022-09-27T10:42:38.955Z,30.58
2022-09-27T10:45:30.696Z,30.83
2022-09-27T10:48:03.144Z,30.27
2022-09-27T10:51:03.431Z,30.69
2022-09-27T10:53:46.844Z,30.74
2022-09-27T10:56:36.187Z,30.48
2022-09-27T10:59:05.496Z,30.81
2022-09-27T11:01:46.584Z,31.01
2022-09-27T11:04:32.684Z,31.24
2022-09-27T11:07:20.534Z,31.36
2022-09-27T11:10:05.761Z,31.66
2022-09-27T11:12:36.821Z,31.69
2022-09-27T11:15:10.157Z,31.96
2022-09-27T11:18:17.845Z,32.06
2022-09-27T11:21:11.065Z,32.03
2022-09-27T11:23:56.374Z,32.09
2022-09-27T11:26:57.769Z,32.17
2022-09-27T11:29:33.651Z,32.34
2022-09-27T11:33:00.648Z,32.50
2022-09-27T11:35:52.167Z,32.75
2022-09-27T11:38:54.383Z,32.56
2022-09-27T11:42:06.350Z,33.23
2022-09-27T11:45:50.274Z,32.71
2022-09-27T11:48:43.011Z,32.40
2022-09-27T11:51:39.743Z,32.47
2022-09-27T11:54:42.430Z,32.89
2022-09-27T11:57:34.567Z,32.89
2022-09-27T12:00:25.270Z,32.83
2022-09-27T12:03:43.706Z,32.90
2022-09-27T12:06:29.699Z,33.40
2022-09-27T12:09:23.206Z,33.38
2022-09-27T12:12:12.984Z,32.81
2022-09-27T12:15:13.385Z,32.40
2022-09-27T12:17:47.539Z,32.47
2022-09-27T12:20:26.147Z,32.35
2022-09-27T12:23:02.523Z,32.61
2022-09-27T12:26:07.048Z,33.09
2022-09-27T12:29:19.267Z,33.19
2022-09-27T12:32:31.400Z,32.60
2022-09-27T12:35:27.892Z,31.81
2022-09-27T12:38:17.808Z,31.59
2022-09-27T12:40:53.900Z,30.99
2022-09-27T12:43:32.103Z,30.85
2022-09-27T12:46:41.818Z,30.69
2022-09-27T12:49:48.955Z,30.52
2022-09-27T12:52:25.612Z,30.69
2022-09-27T12:55:27.816Z,30.45
2022-09-27T12:58:19.689Z,30.60
2022-09-27T13:01:13.689Z,30.48
2022-09-27T13:04:02.893Z,30.77
2022-09-27T13:07:17.828Z,30.82
2022-09-27T13:10:05.464Z,31.44
2022-09-27T13:12:35.247Z,32.12
2022-09-27T13:15:29.033Z,33.17
2022-09-27T13:18:01.633Z,32.86
2022-09-27T13:20:49.013Z,32.33
2022-09-27T13:23:52.019Z,31.60
2022-09-27T13:26:51.429Z,31.68
2022-09-27T13:29:27.008Z,31.48
2022-09-27T13:31:59.966Z,30.96
2022-09-27T13:34:44.052Z,30.68
2022-09-27T13:37:48.124Z,30.55
2022-09-27T13:40:25.076Z,30.45
2022-09-27T13:43:18.168Z,30.40
2022-09-27T13:46:07.808Z,30.10
2022-09-27T13:48:43.778Z,30.02
2022-09-27T13:51:41.436Z,29.64
2022-09-27T13:54:49.970Z,29.70
2022-09-27T13:57:58.958Z,29.67
2022-09-27T14:00:39.048Z,29.66
2022-09-27T14:03:12.047Z,29.29
2022-09-27T14:06:08.788Z,29.10
2022-09-27T14:09:01.407Z,29.42
2022-09-27T14:11:38.715Z,29.12
2022-09-27T14:14:15.888Z,28.59
2022-09-27T14:16:48.247Z,28.34
2022-09-27T14:19:28.299Z,27.47
2022-09-27T14:22:14.762Z,26.99
2022-09-27T14:24:57.927Z,26.40
2022-09-27T14:27:37.892Z,26.05
2022-09-27T14:30:30.693Z,25.87
2022-09-27T14:33:46.866Z,25.72
2022-09-27T14:36:50.385Z,25.43
2022-09-27T14:39:33.101Z,25.26
2022-09-27T14:42:26.526Z,25.11
2022-09-27T14:44:59.274Z,25.00
2022-09-27T14:47:30.455Z,25.07
2022-09-27T14:50:01.426Z,25.02
2022-09-27T14:52:36.799Z,25.04
2022-09-27T14:55:19.129Z,25.07
2022-09-27T14:58:03.059Z,25.15
2022-09-27T15:00:35.367Z,25.11
2022-09-27T15:03:09.291Z,25.09
2022-09-27T15:05:43.382Z,25.05
2022-09-27T15:08:15.362Z,25.05
2022-09-27T15:10:43.276Z,24.96
2022-09-27T15:13:17.170Z,24.86
2022-09-27T15:15:49.427Z,24.92
2022-09-27T15:18:43.298Z,24.94
2022-09-27T15:21:18.682Z,24.92
2022-09-27T15:23:46.521Z,24.89
2022-09-27T15:26:19.579Z,24.99
2022-09-27T15:28:52.432Z,24.86
2022-09-27T15:31:36.834Z,24.83
2022-09-27T15:34:10.203Z,24.69
2022-09-27T15:36:55.016Z,24.77
2022-09-27T15:39:36.743Z,24.84
2022-09-27T15:42:17.601Z,24.86
2022-09-27T15:44:58.291Z,24.78
2022-09-27T15:47:34.968Z,24.77
2022-09-27T15:50:17.503Z,24.79
2022-09-27T15:52:56.043Z,24.65
2022-09-27T15:55:26.721Z,24.59
2022-09-27T15:57:59.476Z,24.49
2022-09-27T16:00:29.739Z,24.51
2022-09-27T16:02:57.638Z,24.55
2022-09-27T16:05:27.143Z,24.46
2022-09-27T16:07:54.981Z,24.45
2022-09-27T16:10:34.789Z,24.49
2022-09-27T16:13:02.322Z,24.52
2022-09-27T16:15:30.071Z,24.28
2022-09-27T16:17:59.972Z,24.23
2022-09-27T16:20:28.601Z,24.14
2022-09-27T16:22:59.416Z,24.08
2022-09-27T16:25:29.246Z,24.22
2022-09-27T16:28:00.574Z,24.32
2022-09-27T16:30:29.976Z,24.09
2022-09-27T16:32:59.243Z,24.56
2022-09-27T16:35:28.438Z,24.56
2022-09-27T16:37:56.119Z,24.57
2022-09-27T16:40:23.672Z,24.36
2022-09-27T16:42:51.541Z,24.05
2022-09-27T16:45:22.019Z,23.65
2022-09-27T16:47:49.526Z,23.44
2022-09-27T16:50:35.717Z,23.55
2022-09-27T16:53:05.192Z,23.02
2022-09-27T16:55:32.799Z,22.97
2022-09-27T16:58:06.497Z,23.06
2022-09-27T17:00:34.420Z,23.33
2022-09-27T17:03:01.872Z,23.21
2022-09-27T17:05:29.418Z,23.10
2022-09-27T17:07:57.345Z,23.22
2022-09-27T17:10:24.789Z,23.14
2022-09-27T17:12:52.594Z,23.05
2022-09-27T17:15:20.468Z,22.93
2022-09-27T17:17:54.939Z,23.02
2022-09-27T17:20:22.359Z,22.74
2022-09-27T17:22:50.037Z,22.72
2022-09-27T17:25:17.848Z,22.66
2022-09-27T17:27:45.341Z,22.67
2022-09-27T17:30:13.960Z,22.61
2022-09-27T17:32:41.385Z,22.68
2022-09-27T17:35:09.454Z,22.77
2022-09-27T17:37:37.612Z,22.60
2022-09-27T17:40:06.429Z,22.58
2022-09-27T17:42:35.477Z,22.54
2022-09-27T17:45:04.539Z,22.48
2022-09-27T17:47:50.376Z,22.53
2022-09-27T17:50:29.936Z,22.54
2022-09-27T17:52:59.963Z,22.56
2022-09-27T17:55:27.691Z,22.44
2022-09-27T17:57:56.679Z,22.44
2022-09-27T18:00:24.324Z,22.38
2022-09-27T18:02:52.819Z,22.31
2022-09-27T18:05:21.453Z,22.23
2022-09-27T18:07:49.624Z,22.10
2022-09-27T18:10:17.938Z,21.99
2022-09-27T18:12:46.958Z,21.85
2022-09-27T18:15:16.867Z,21.80
2022-09-27T18:17:45.873Z,21.83
2022-09-27T18:20:13.499Z,21.87
2022-09-27T18:22:41.116Z,21.93
2022-09-27T18:25:12.021Z,21.97
2022-09-27T18:27:41.044Z,21.98
2022-09-27T18:30:09.761Z,21.83
2022-09-27T18:32:37.359Z,21.67
2022-09-27T18:35:05.254Z,21.74
2022-09-27T18:37:34.594Z,21.76
2022-09-27T18:40:02.592Z,21.79
2022-09-27T18:42:32.022Z,21.68
2022-09-27T18:45:04.041Z,21.96
2022-09-27T18:47:38.341Z,21.84
2022-09-27T18:50:08.166Z,21.82
2022-09-27T18:52:43.448Z,21.80
2022-09-27T18:55:12.138Z,21.80
2022-09-27T18:57:40.148Z,21.83
2022-09-27T19:00:11.407Z,21.80
2022-09-27T19:02:42.419Z,22.18
2022-09-27T19:05:10.560Z,22.19
2022-09-27T19:07:39.951Z,22.09
2022-09-27T19:10:12.833Z,22.04
2022-09-27T19:12:42.332Z,22.21
2022-09-27T19:15:10.873Z,22.08
2022-09-27T19:17:38.795Z,22.04
2022-09-27T19:20:08.018Z,21.99
2022-09-27T19:22:36.252Z,21.95
2022-09-27T19:25:05.410Z,21.90
2022-09-27T19:27:32.929Z,21.99
2022-09-27T19:30:00.396Z,21.96
2022-09-27T19:32:27.905Z,21.89
2022-09-27T19:34:56.081Z,21.80
2022-09-27T19:37:26.011Z,21.87
2022-09-27T19:39:55.653Z,21.78
2022-09-27T19:42:23.263Z,21.83
2022-09-27T19:44:52.937Z,21.80
2022-09-27T19:47:20.506Z,21.89
2022-09-27T19:49:48.462Z,21.88
2022-09-27T19:52:29.312Z,21.82
2022-09-27T19:54:56.823Z,21.83
2022-09-27T19:57:24.417Z,21.87
2022-09-27T19:59:52.010Z,21.83
2022-09-27T20:02:19.553Z,21.83
2022-09-27T20:04:47.570Z,21.80
2022-09-27T20:07:16.900Z,21.83
2022-09-27T20:09:46.107Z,21.82
2022-09-27T20:12:13.721Z,21.87
2022-09-27T20:14:42.784Z,21.85
2022-09-27T20:17:31.191Z,21.90
2022-09-27T20:19:58.685Z,21.91
2022-09-27T20:22:29.248Z,21.79
2022-09-27T20:24:56.783Z,21.72
2022-09-27T20:27:25.206Z,21.73
2022-09-27T20:29:52.648Z,21.59
2022-09-27T20:32:27.672Z,21.60
2022-09-27T20:34:55.765Z,21.29
2022-09-27T20:37:23.987Z,20.94
2022-09-27T20:39:52.648Z,20.65
2022-09-27T20:42:20.498Z,20.60
2022-09-27T20:44:54.089Z,20.55
2022-09-27T20:47:23.087Z,20.34
2022-09-27T20:49:50.523Z,20.30
2022-09-27T20:52:19.584Z,20.38
2022-09-27T20:54:47.088Z,20.35
2022-09-27T20:57:14.491Z,20.39
2022-09-27T20:59:42.236Z,20.29
2022-09-27T21:02:10.257Z,20.33
2022-09-27T21:04:37.682Z,20.44
2022-09-27T21:07:05.116Z,20.50
2022-09-27T21:09:34.252Z,20.33
2022-09-27T21:12:01.902Z,20.27
2022-09-27T21:14:29.320Z,20.22
2022-09-27T21:17:01.146Z,20.02
2022-09-27T21:19:29.502Z,20.14
2022-09-27T21:21:56.917Z,20.09
2022-09-27T21:24:24.412Z,20.06
2022-09-27T21:26:53.894Z,20.03
2022-09-27T21:29:21.337Z,19.99
2022-09-27T21:31:48.753Z,20.07
2022-09-27T21:34:16.232Z,20.03
2022-09-27T21:36:43.685Z,20.24
2022-09-27T21:39:15.385Z,20.30
2022-09-27T21:41:42.910Z,20.27
2022-09-27T21:44:11.599Z,20.25
2022-09-27T21:46:43.874Z,20.15
2022-09-27T21:49:11.727Z,20.24
2022-09-27T21:51:42.230Z,20.19
2022-09-27T21:54:17.219Z,20.08
2022-09-27T21:56:44.964Z,19.87
2022-09-27T21:59:16.714Z,19.75
2022-09-27T22:01:46.360Z,19.63
2022-09-27T22:04:14.527Z,19.68
2022-09-27T22:06:42.187Z,19.72
2022-09-27T22:09:16.023Z,19.62
2022-09-27T22:11:44.495Z,19.65
2022-09-27T22:14:13.632Z,19.68
2022-09-27T22:16:41.292Z,19.60
2022-09-27T22:19:10.317Z,19.79
2022-09-27T22:21:39.667Z,19.76
2022-09-27T22:24:15.525Z,19.77
2022-09-27T22:26:49.103Z,19.67
2022-09-27T22:29:16.808Z,19.50
2022-09-27T22:31:44.454Z,19.40
2022-09-27T22:34:18.756Z,19.48
2022-09-27T22:36:47.174Z,19.47
2022-09-27T22:39:14.764Z,19.36
2022-09-27T22:41:42.263Z,19.33
2022-09-27T22:44:09.746Z,19.37
2022-09-27T22:46:37.230Z,19.36
2022-09-27T22:49:04.699Z,19.35
2022-09-27T22:51:32.341Z,19.25
2022-09-27T22:53:59.894Z,19.30
2022-09-27T22:56:27.372Z,19.39
2022-09-27T22:58:54.845Z,19.72
2022-09-27T23:01:25.900Z,19.26
2022-09-27T23:03:55.621Z,19.01
2022-09-27T23:06:24.024Z,18.62
2022-09-27T23:08:51.912Z,18.62
2022-09-27T23:11:22.010Z,18.70
2022-09-27T23:13:51.194Z,18.64
2022-09-27T23:16:24.595Z,18.46
2022-09-27T23:18:57.947Z,18.55
2022-09-27T23:21:27.143Z,18.60
2022-09-27T23:23:59.857Z,18.43
2022-09-27T23:26:29.102Z,18.53
2022-09-27T23:29:00.083Z,18.37
2022-09-27T23:31:30.722Z,18.20
2022-09-27T23:34:02.054Z,18.19
2022-09-27T23:36:29.804Z,18.07
2022-09-27T23:39:01.330Z,18.07
2022-09-27T23:41:29.216Z,17.97
2022-09-27T23:43:56.743Z,18.10
2022-09-27T23:46:25.061Z,18.11
2022-09-27T23:48:53.478Z,18.03
2022-09-27T23:51:21.128Z,18.04
2022-09-27T23:53:48.558Z,17.94
2022-09-27T23:56:18.213Z,17.99
2022-09-27T23:58:47.072Z,18.08
